Time;durP1;ratioP1;P1;durP2;ratioP2;P2;SDS_P1;SDS_P2;PMS_P1;PMS_P2;Temp;Humidity;BMP_temperature;BMP_pressure;BME280_temperature;BME280_humidity;BME280_pressure;Samples;Min_cycle;Max_cycle;Signal;HPM_P1;HPM_P2
2023/08/03 00:08:14;;;;;;;;;;;19.20;99.90;;;;;;20920468;28;20291;-72
2023/08/03 00:18:15;;;;;;;;;;;19.20;99.90;;;;;;20919907;28;19917;-72
2023/08/03 00:28:17;;;;;;;;;;;19.10;99.90;;;;;;20919305;28;19978;-73
2023/08/03 00:38:18;;;;;;;;;;;18.90;99.90;;;;;;20918675;28;20326;-71
2023/08/03 00:48:20;;;;;;;;;;;18.60;99.90;;;;;;20917620;28;19920;-72
2023/08/03 00:58:21;;;;;;;;;;;18.40;99.90;;;;;;20907174;28;19968;-72
2023/08/03 01:08:21;;;;;;;;;;;18.30;99.90;;;;;;20832309;28;20055;-72
2023/08/03 01:18:22;;;;;;;;;;;18.20;99.90;;;;;;20850384;28;19916;-72
2023/08/03 01:28:23;;;;;;;;;;;18.20;99.90;;;;;;20914939;28;19917;-72
2023/08/03 01:38:23;;;;;;;;;;;18.10;99.90;;;;;;20913909;28;19924;-72
2023/08/03 01:48:24;;;;;;;;;;;18.30;99.90;;;;;;20911837;28;19913;-71
2023/08/03 01:58:25;;;;;;;;;;;18.10;99.90;;;;;;20912117;28;19917;-73
2023/08/03 02:08:25;;;;;;;;;;;18.00;99.90;;;;;;20910194;28;19920;-72
2023/08/03 02:18:28;;;;;;;;;;;18.00;99.90;;;;;;20908802;28;20383;-72
2023/08/03 02:28:29;;;;;;;;;;;17.90;99.90;;;;;;20908759;28;19921;-72
2023/08/03 02:38:30;;;;;;;;;;;17.80;99.90;;;;;;20907994;28;19920;-74
2023/08/03 02:48:32;;;;;;;;;;;17.90;99.90;;;;;;20907348;28;20295;-75
2023/08/03 02:58:36;;;;;;;;;;;18.00;99.90;;;;;;20906698;28;19917;-76
2023/08/03 03:08:41;;;;;;;;;;;17.80;99.90;;;;;;20906402;28;20542;-75
2023/08/03 03:18:42;;;;;;;;;;;17.60;99.90;;;;;;20889096;28;19917;-76
2023/08/03 03:28:42;;;;;;;;;;;17.60;99.90;;;;;;20915848;28;19923;-75
2023/08/03 03:38:44;;;;;;;;;;;17.60;99.90;;;;;;20921552;28;19932;-75
2023/08/03 03:48:45;;;;;;;;;;;17.60;99.90;;;;;;20920595;28;20007;-75
2023/08/03 03:58:48;;;;;;;;;;;17.70;99.90;;;;;;20913155;28;20346;-75
2023/08/03 04:08:49;;;;;;;;;;;17.70;99.90;;;;;;20838668;28;20372;-72
2023/08/03 04:18:51;;;;;;;;;;;17.70;99.90;;;;;;20894062;28;20008;-75
2023/08/03 04:28:52;;;;;;;;;;;17.70;99.90;;;;;;20919692;28;19958;-75
2023/08/03 04:38:53;;;;;;;;;;;17.80;99.90;;;;;;20918488;28;19917;-74
2023/08/03 04:48:54;;;;;;;;;;;17.60;99.90;;;;;;20917449;28;20011;-74
2023/08/03 04:58:55;;;;;;;;;;;17.70;99.90;;;;;;20889228;28;19943;-74
2023/08/03 05:08:56;;;;;;;;;;;17.60;99.90;;;;;;20865111;28;20007;-74
2023/08/03 05:19:00;;;;;;;;;;;17.70;99.90;;;;;;20876559;28;19928;-74
2023/08/03 05:29:02;;;;;;;;;;;17.90;99.90;;;;;;20913129;28;19913;-74
2023/08/03 05:39:04;;;;;;;;;;;18.10;99.90;;;;;;20888730;28;19931;-75
2023/08/03 05:49:05;;;;;;;;;;;18.00;99.90;;;;;;20908443;28;19912;-75
2023/08/03 05:59:14;;;;;;;;;;;17.80;99.90;;;;;;20912476;28;19917;-74
2023/08/03 06:09:16;;;;;;;;;;;17.70;99.90;;;;;;20919299;28;19965;-74
2023/08/03 06:19:17;;;;;;;;;;;17.70;99.90;;;;;;20911023;28;19916;-74
2023/08/03 06:29:17;;;;;;;;;;;17.70;99.90;;;;;;20910307;28;19912;-75
2023/08/03 06:39:18;;;;;;;;;;;17.70;99.90;;;;;;20909611;28;20371;-74
2023/08/03 06:49:19;;;;;;;;;;;18.80;99.90;;;;;;20909035;28;19940;-74
2023/08/03 06:59:21;;;;;;;;;;;18.70;99.90;;;;;;20908738;28;19927;-74
2023/08/03 07:09:25;;;;;;;;;;;18.40;99.90;;;;;;20907394;28;20411;-75
2023/08/03 07:19:25;;;;;;;;;;;18.30;99.90;;;;;;20907118;28;19947;-74
2023/08/03 07:29:27;;;;;;;;;;;18.30;99.90;;;;;;20906940;28;19913;-75
2023/08/03 07:39:27;;;;;;;;;;;18.50;99.90;;;;;;20906945;28;20442;-74
2023/08/03 07:49:28;;;;;;;;;;;18.60;99.90;;;;;;20906457;28;20018;-74
2023/08/03 07:59:28;;;;;;;;;;;18.60;99.90;;;;;;20912461;28;20284;-74
2023/08/03 08:09:29;;;;;;;;;;;18.70;99.90;;;;;;20904514;28;20016;-74
2023/08/03 08:19:30;;;;;;;;;;;18.90;99.90;;;;;;20919980;28;19963;-74
2023/08/03 08:29:31;;;;;;;;;;;19.20;99.90;;;;;;20919057;28;20284;-73
2023/08/03 08:39:32;;;;;;;;;;;19.40;99.90;;;;;;20919416;28;19924;-74
2023/08/03 08:49:32;;;;;;;;;;;19.70;99.90;;;;;;20923119;28;19979;-74
2023/08/03 08:59:33;;;;;;;;;;;19.90;99.90;;;;;;20918151;28;19966;-73
2023/08/03 09:09:35;;;;;;;;;;;19.90;99.90;;;;;;20916832;28;19913;-73
2023/08/03 09:19:36;;;;;;;;;;;20.50;99.90;;;;;;20901702;28;20280;-74
2023/08/03 09:29:38;;;;;;;;;;;20.90;99.90;;;;;;20911041;28;19919;-74
2023/08/03 09:39:40;;;;;;;;;;;20.70;99.90;;;;;;20910953;28;19924;-75
2023/08/03 09:49:44;;;;;;;;;;;20.00;99.90;;;;;;20874072;28;19932;-73
2023/08/03 09:59:45;;;;;;;;;;;20.30;99.90;;;;;;20869458;28;20007;-73
2023/08/03 10:09:49;;;;;;;;;;;20.20;99.90;;;;;;20868622;28;19913;-73
2023/08/03 10:19:50;;;;;;;;;;;20.60;99.90;;;;;;20873198;28;19925;-73
2023/08/03 10:29:51;;;;;;;;;;;20.30;99.90;;;;;;20899785;28;19921;-73
2023/08/03 10:39:53;;;;;;;;;;;20.20;99.90;;;;;;20887299;28;19965;-73
2023/08/03 10:49:55;;;;;;;;;;;20.40;99.90;;;;;;20900282;28;19935;-73
2023/08/03 11:00:01;;;;;;;;;;;21.30;99.90;;;;;;20909697;28;19943;-74
2023/08/03 11:10:04;;;;;;;;;;;20.90;99.90;;;;;;20907242;28;19913;-73
2023/08/03 11:20:07;;;;;;;;;;;20.80;99.90;;;;;;20907648;28;19995;-74
2023/08/03 11:30:08;;;;;;;;;;;22.40;99.90;;;;;;20906963;28;19913;-73
2023/08/03 11:40:11;;;;;;;;;;;20.90;99.90;;;;;;20908748;28;20295;-73
2023/08/03 11:50:12;;;;;;;;;;;20.40;99.90;;;;;;20916270;28;19913;-73
2023/08/03 12:00:14;;;;;;;;;;;20.40;99.90;;;;;;20926795;28;20003;-73
2023/08/03 12:10:14;;;;;;;;;;;21.60;99.90;;;;;;20921486;28;19913;-73
2023/08/03 12:20:15;;;;;;;;;;;22.00;99.90;;;;;;20920133;28;19923;-73
2023/08/03 12:30:16;;;;;;;;;;;22.70;99.90;;;;;;20922109;28;19920;-73
2023/08/03 12:40:16;;;;;;;;;;;23.20;99.90;;;;;;20918656;28;19963;-73
2023/08/03 12:50:17;;;;;;;;;;;23.10;99.90;;;;;;20924181;28;19912;-73
2023/08/03 13:00:18;;;;;;;;;;;23.70;99.90;;;;;;20917795;28;19923;-73
2023/08/03 13:10:20;;;;;;;;;;;23.70;99.90;;;;;;20915712;28;19960;-73
2023/08/03 13:20:20;;;;;;;;;;;24.70;99.90;;;;;;20904432;28;19975;-73
2023/08/03 13:30:21;;;;;;;;;;;23.70;99.90;;;;;;20891059;28;19916;-73
2023/08/03 13:40:22;;;;;;;;;;;24.10;99.90;;;;;;20880189;28;19917;-72
2023/08/03 13:50:22;;;;;;;;;;;24.50;99.90;;;;;;20873749;28;19917;-73
2023/08/03 14:00:23;;;;;;;;;;;24.10;99.90;;;;;;20844827;28;19921;-73
2023/08/03 14:10:24;;;;;;;;;;;23.60;99.90;;;;;;20859025;28;19920;-72
2023/08/03 14:20:24;;;;;;;;;;;24.20;99.90;;;;;;20869900;28;19960;-74
2023/08/03 14:30:25;;;;;;;;;;;23.30;99.90;;;;;;20867759;28;19919;-73
2023/08/03 14:40:26;;;;;;;;;;;23.40;99.90;;;;;;20840580;28;19976;-74
2023/08/03 14:50:27;;;;;;;;;;;24.10;99.90;;;;;;20861201;28;19952;-73
2023/08/03 15:00:27;;;;;;;;;;;24.20;99.90;;;;;;20908616;28;20395;-72
2023/08/03 15:10:28;;;;;;;;;;;24.10;99.90;;;;;;20908075;28;19967;-73
2023/08/03 15:20:30;;;;;;;;;;;24.30;99.90;;;;;;20910861;28;19917;-73
2023/08/03 15:30:31;;;;;;;;;;;24.10;99.90;;;;;;20925409;28;19921;-73
2023/08/03 15:40:34;;;;;;;;;;;24.00;99.90;;;;;;20923906;28;19932;-73
2023/08/03 15:50:35;;;;;;;;;;;24.20;99.90;;;;;;20922763;28;20403;-73
2023/08/03 16:00:36;;;;;;;;;;;24.00;99.90;;;;;;20922206;28;19962;-72
2023/08/03 16:10:37;;;;;;;;;;;23.50;99.90;;;;;;20921753;28;19912;-73
2023/08/03 16:20:37;;;;;;;;;;;23.30;99.90;;;;;;20926808;28;19920;-73
2023/08/03 16:30:38;;;;;;;;;;;23.10;99.90;;;;;;20917536;28;19913;-73
2023/08/03 16:40:39;;;;;;;;;;;23.10;99.90;;;;;;20881168;28;19959;-73
2023/08/03 16:50:39;;;;;;;;;;;22.80;99.90;;;;;;20875347;28;20359;-73
2023/08/03 17:00:40;;;;;;;;;;;21.90;99.90;;;;;;20841959;28;19921;-73
2023/08/03 17:10:41;;;;;;;;;;;21.60;99.90;;;;;;20871279;23;20451;-76
2023/08/03 17:20:44;;;;;;;;;;;21.40;99.90;;;;;;20940768;28;19967;-76
2023/08/03 17:30:45;;;;;;;;;;;21.40;99.90;;;;;;20915207;28;20015;-76
2023/08/03 17:40:51;;;;;;;;;;;21.20;99.90;;;;;;20914484;28;20373;-77
2023/08/03 17:50:52;;;;;;;;;;;21.10;99.90;;;;;;20895409;28;20421;-77
2023/08/03 18:00:53;;;;;;;;;;;20.80;99.90;;;;;;20911138;28;19917;-76
2023/08/03 18:10:54;;;;;;;;;;;20.20;99.90;;;;;;20910843;28;19988;-76
2023/08/03 18:20:55;;;;;;;;;;;20.10;99.90;;;;;;20910876;28;20410;-76
2023/08/03 18:30:59;;;;;;;;;;;19.60;99.90;;;;;;20910170;28;19979;-76
2023/08/03 18:41:01;;;;;;;;;;;19.30;99.90;;;;;;20910722;28;20379;-76
2023/08/03 18:51:03;;;;;;;;;;;19.00;99.90;;;;;;20907508;28;19938;-77
2023/08/03 19:01:04;;;;;;;;;;;18.90;99.90;;;;;;20905799;28;19924;-76
2023/08/03 19:11:05;;;;;;;;;;;18.40;99.90;;;;;;20833760;28;19917;-76
2023/08/03 19:21:05;;;;;;;;;;;18.40;99.90;;;;;;20848110;28;19917;-76
2023/08/03 19:31:06;;;;;;;;;;;18.00;99.90;;;;;;20865886;28;19917;-76
2023/08/03 19:41:07;;;;;;;;;;;17.60;99.90;;;;;;20862810;28;19924;-76
2023/08/03 19:51:07;;;;;;;;;;;17.70;99.90;;;;;;20863810;28;19921;-77
2023/08/03 20:01:08;;;;;;;;;;;17.60;99.90;;;;;;20862056;28;20375;-76
2023/08/03 20:11:09;;;;;;;;;;;17.30;99.90;;;;;;20871226;28;19917;-77
2023/08/03 20:21:09;;;;;;;;;;;17.40;99.90;;;;;;20915015;28;19932;-77
2023/08/03 20:31:10;;;;;;;;;;;17.10;99.90;;;;;;20919336;28;19912;-77
2023/08/03 20:41:10;;;;;;;;;;;17.20;99.90;;;;;;20918595;28;19916;-77
2023/08/03 20:51:11;;;;;;;;;;;17.10;99.90;;;;;;20918531;28;20000;-77
2023/08/03 21:01:12;;;;;;;;;;;17.00;99.90;;;;;;20917356;28;19920;-77
2023/08/03 21:11:13;;;;;;;;;;;16.80;99.90;;;;;;20916212;28;19960;-77
2023/08/03 21:21:18;;;;;;;;;;;16.70;99.90;;;;;;20914070;28;19978;-77
2023/08/03 21:31:19;;;;;;;;;;;16.40;99.90;;;;;;20915162;28;19912;-77
2023/08/03 21:41:19;;;;;;;;;;;15.80;99.90;;;;;;20914524;28;19928;-77
2023/08/03 21:51:20;;;;;;;;;;;15.70;99.90;;;;;;20913658;28;19913;-77
2023/08/03 22:01:21;;;;;;;;;;;15.70;99.90;;;;;;20911473;28;19917;-78
2023/08/03 22:11:21;;;;;;;;;;;15.10;99.90;;;;;;20910489;28;19931;-77
2023/08/03 22:21:22;;;;;;;;;;;14.70;99.90;;;;;;20911047;28;19917;-77
2023/08/03 22:31:23;;;;;;;;;;;14.30;99.90;;;;;;20910000;28;19966;-77
2023/08/03 22:41:23;;;;;;;;;;;14.20;99.90;;;;;;20909732;28;19923;-77
2023/08/03 22:51:24;;;;;;;;;;;14.00;99.90;;;;;;20908167;28;20135;-77
2023/08/03 23:01:25;;;;;;;;;;;13.70;99.90;;;;;;20907211;28;19924;-77
2023/08/03 23:11:25;;;;;;;;;;;13.30;99.90;;;;;;20918921;23;19943;-73
2023/08/03 23:21:26;;;;;;;;;;;13.20;99.90;;;;;;20907898;28;19917;-73
2023/08/03 23:31:27;;;;;;;;;;;13.20;99.90;;;;;;20907766;28;19913;-73
2023/08/03 23:41:27;;;;;;;;;;;13.20;99.90;;;;;;20914951;28;20410;-74
2023/08/03 23:51:28;;;;;;;;;;;13.40;99.90;;;;;;20926325;28;19919;-73
